createdAt,value
2018-10-05T00:01:59.777Z,10.80
2018-10-05T00:04:27.356Z,10.80
2018-10-05T00:06:54.883Z,10.70
2018-10-05T00:09:22.387Z,10.70
2018-10-05T00:11:49.871Z,10.80
2018-10-05T00:14:17.442Z,10.70
2018-10-05T00:16:44.942Z,10.70
2018-10-05T00:19:12.422Z,10.70
2018-10-05T00:21:39.929Z,10.70
2018-10-05T00:24:07.431Z,10.60
2018-10-05T00:26:34.939Z,10.70
2018-10-05T00:29:02.398Z,10.70
2018-10-05T00:31:29.962Z,10.70
2018-10-05T00:33:57.465Z,10.70
2018-10-05T00:36:24.967Z,10.70
2018-10-05T00:38:52.438Z,10.70
2018-10-05T00:41:19.916Z,10.70
2018-10-05T00:43:48.054Z,10.70
2018-10-05T00:46:15.550Z,10.60
2018-10-05T00:48:43.010Z,10.60
2018-10-05T00:51:10.495Z,10.60
2018-10-05T00:53:38.018Z,10.60
2018-10-05T00:56:05.459Z,10.70
2018-10-05T00:58:33.186Z,10.60
2018-10-05T01:01:00.668Z,10.60
2018-10-05T01:03:28.197Z,10.60
2018-10-05T01:05:55.663Z,10.60
2018-10-05T01:08:23.143Z,10.60
2018-10-05T01:10:50.670Z,10.60
2018-10-05T01:13:18.134Z,10.60
2018-10-05T01:15:45.649Z,10.60
2018-10-05T01:18:13.086Z,10.60
2018-10-05T01:20:40.554Z,10.60
2018-10-05T01:23:08.053Z,10.60
2018-10-05T01:25:35.590Z,10.60
2018-10-05T01:28:03.127Z,10.60
2018-10-05T01:30:30.859Z,10.60
2018-10-05T01:32:58.314Z,10.50
2018-10-05T01:35:25.808Z,10.60
2018-10-05T01:37:53.305Z,10.50
2018-10-05T01:40:20.751Z,10.60
2018-10-05T01:42:48.263Z,10.60
2018-10-05T01:45:15.721Z,10.60
2018-10-05T01:47:43.199Z,10.60
2018-10-05T01:50:10.722Z,10.60
2018-10-05T01:52:38.198Z,10.60
2018-10-05T01:55:05.670Z,10.70
2018-10-05T01:57:33.111Z,10.60
2018-10-05T02:00:00.648Z,10.60
2018-10-05T02:02:28.182Z,10.50
2018-10-05T02:04:55.646Z,10.50
2018-10-05T02:07:23.121Z,10.50
2018-10-05T02:09:50.635Z,10.60
2018-10-05T02:12:18.111Z,10.50
2018-10-05T02:14:45.671Z,10.50
2018-10-05T02:17:13.170Z,10.50
2018-10-05T02:19:40.782Z,10.50
2018-10-05T02:22:08.269Z,10.50
2018-10-05T02:24:35.796Z,10.50
2018-10-05T02:27:03.403Z,10.50
2018-10-05T02:29:30.972Z,10.40
2018-10-05T02:31:58.611Z,10.40
2018-10-05T02:34:26.163Z,10.40
2018-10-05T02:36:53.726Z,10.40
2018-10-05T02:39:22.082Z,10.30
2018-10-05T02:41:49.619Z,10.30
2018-10-05T02:44:17.116Z,10.30
2018-10-05T02:46:44.668Z,10.30
2018-10-05T02:49:12.183Z,10.30
2018-10-05T02:51:39.637Z,10.30
2018-10-05T02:54:07.095Z,10.30
2018-10-05T02:56:34.641Z,10.20
2018-10-05T02:59:02.119Z,10.20
2018-10-05T03:01:42.485Z,10.20
2018-10-05T03:04:09.971Z,10.10
2018-10-05T03:06:37.438Z,10.10
2018-10-05T03:09:05.735Z,10.10
2018-10-05T03:11:33.214Z,10.10
2018-10-05T03:14:01.583Z,10.10
2018-10-05T03:16:29.182Z,10.10
2018-10-05T03:18:56.647Z,10.10
2018-10-05T03:21:24.161Z,10.10
2018-10-05T03:23:51.662Z,10.10
2018-10-05T03:26:19.139Z,10.10
2018-10-05T03:28:46.590Z,10.00
2018-10-05T03:31:14.108Z,10.00
2018-10-05T03:33:41.580Z,9.90
2018-10-05T03:36:09.354Z,9.90
2018-10-05T03:38:36.882Z,9.90
2018-10-05T03:41:04.386Z,9.90
2018-10-05T03:43:31.835Z,9.90
2018-10-05T03:45:59.389Z,9.80
2018-10-05T03:48:26.824Z,9.90
2018-10-05T03:50:54.270Z,9.80
2018-10-05T03:53:21.758Z,9.90
2018-10-05T03:55:49.242Z,9.80
2018-10-05T03:58:16.706Z,9.90
2018-10-05T04:00:44.179Z,9.80
2018-10-05T04:03:11.670Z,9.80
2018-10-05T04:05:39.126Z,9.80
2018-10-05T04:08:06.686Z,9.80
2018-10-05T04:10:34.134Z,9.80
2018-10-05T04:13:01.627Z,9.80
2018-10-05T04:15:29.416Z,9.80
2018-10-05T04:17:56.902Z,9.80
2018-10-05T04:20:24.380Z,9.70
2018-10-05T04:22:51.833Z,9.70
2018-10-05T04:25:19.260Z,9.70
2018-10-05T04:27:48.023Z,9.70
2018-10-05T04:30:15.491Z,9.70
2018-10-05T04:32:42.924Z,9.70
2018-10-05T04:35:10.379Z,9.70
2018-10-05T04:37:37.838Z,9.70
2018-10-05T04:40:05.358Z,9.60
2018-10-05T04:42:33.202Z,9.60
2018-10-05T04:45:00.679Z,9.60
2018-10-05T04:47:28.174Z,9.60
2018-10-05T04:49:55.634Z,9.60
2018-10-05T04:52:23.418Z,9.60
2018-10-05T04:54:50.878Z,9.60
2018-10-05T04:57:18.364Z,9.60
2018-10-05T04:59:45.880Z,9.60
2018-10-05T05:02:13.367Z,9.60
2018-10-05T05:04:41.866Z,9.60
2018-10-05T05:07:09.342Z,9.60
2018-10-05T05:09:36.886Z,9.50
2018-10-05T05:12:04.457Z,9.60
2018-10-05T05:14:31.951Z,9.50
2018-10-05T05:16:59.457Z,9.50
2018-10-05T05:19:26.995Z,9.50
2018-10-05T05:21:54.542Z,9.50
2018-10-05T05:24:22.099Z,9.50
2018-10-05T05:26:49.568Z,9.50
2018-10-05T05:29:17.063Z,9.50
2018-10-05T05:31:44.850Z,9.40
2018-10-05T05:34:12.409Z,9.40
2018-10-05T05:36:39.915Z,9.40
2018-10-05T05:39:07.879Z,9.50
2018-10-05T05:41:35.778Z,9.40
2018-10-05T05:44:03.306Z,9.40
2018-10-05T05:46:30.894Z,9.40
2018-10-05T05:48:58.465Z,9.40
2018-10-05T05:51:26.698Z,9.40
2018-10-05T05:53:54.289Z,9.40
2018-10-05T05:56:21.786Z,9.40
2018-10-05T05:58:49.475Z,9.40
2018-10-05T06:01:16.992Z,9.40
2018-10-05T06:03:44.426Z,9.40
2018-10-05T06:06:11.926Z,9.40
2018-10-05T06:08:39.383Z,9.50
2018-10-05T06:11:07.035Z,9.50
2018-10-05T06:13:34.488Z,9.50
2018-10-05T06:16:02.170Z,9.50
2018-10-05T06:18:29.614Z,9.50
2018-10-05T06:20:57.125Z,9.50
2018-10-05T06:23:24.857Z,9.50
2018-10-05T06:25:52.457Z,9.60
2018-10-05T06:28:19.926Z,9.60
2018-10-05T06:30:47.505Z,9.60
2018-10-05T06:33:15.048Z,9.80
2018-10-05T06:35:42.485Z,9.80
2018-10-05T06:38:10.110Z,9.80
2018-10-05T06:40:37.610Z,9.90
2018-10-05T06:43:05.563Z,9.90
2018-10-05T06:45:33.074Z,10.10
2018-10-05T06:48:00.539Z,10.10
2018-10-05T06:50:28.054Z,10.20
2018-10-05T06:52:55.583Z,10.20
2018-10-05T06:55:23.084Z,10.30
2018-10-05T06:57:50.620Z,10.40
2018-10-05T07:00:18.202Z,10.50
2018-10-05T07:02:45.740Z,10.60
2018-10-05T07:05:13.231Z,10.70
2018-10-05T07:07:41.014Z,11.00
2018-10-05T07:10:08.467Z,10.90
2018-10-05T07:12:35.955Z,11.00
2018-10-05T07:15:03.998Z,11.20
2018-10-05T07:17:31.507Z,11.30
2018-10-05T07:19:59.004Z,11.40
2018-10-05T07:22:26.545Z,11.50
2018-10-05T07:24:54.027Z,11.70
2018-10-05T07:27:21.471Z,12.00
2018-10-05T07:29:49.027Z,12.20
2018-10-05T07:32:16.539Z,12.60
2018-10-05T07:34:44.023Z,13.10
2018-10-05T07:37:11.572Z,13.60
2018-10-05T07:39:38.998Z,14.10
2018-10-05T07:42:07.423Z,14.70
2018-10-05T07:44:34.906Z,15.20
2018-10-05T07:47:02.399Z,15.70
2018-10-05T07:49:29.935Z,16.00
2018-10-05T07:51:57.453Z,16.00
2018-10-05T07:54:24.910Z,16.30
2018-10-05T07:56:52.474Z,16.60
2018-10-05T07:59:19.932Z,16.80
2018-10-05T08:01:47.395Z,17.10
2018-10-05T08:04:14.951Z,17.40
2018-10-05T08:06:43.846Z,17.80
2018-10-05T08:09:11.362Z,18.10
2018-10-05T08:11:38.951Z,18.30
2018-10-05T08:14:06.421Z,18.70
2018-10-05T08:16:34.002Z,19.10
2018-10-05T08:19:01.592Z,19.50
2018-10-05T08:21:29.211Z,19.80
2018-10-05T08:23:56.498Z,20.10
2018-10-05T08:26:23.842Z,20.10
2018-10-05T08:28:51.235Z,20.40
2018-10-05T08:31:20.034Z,20.40
2018-10-05T08:33:50.257Z,20.50
2018-10-05T08:36:17.911Z,20.80
2018-10-05T08:38:45.249Z,21.10
2018-10-05T08:41:12.736Z,21.20
2018-10-05T08:43:40.022Z,21.50
2018-10-05T08:46:07.432Z,21.70
2018-10-05T08:48:35.924Z,21.70
2018-10-05T08:51:03.216Z,21.80
2018-10-05T08:53:30.550Z,22.10
2018-10-05T08:55:57.894Z,22.40
2018-10-05T08:58:25.186Z,22.60
2018-10-05T09:00:52.566Z,22.90
2018-10-05T09:03:19.860Z,23.20
2018-10-05T09:05:50.075Z,23.20
2018-10-05T09:08:17.330Z,23.30
2018-10-05T09:10:44.666Z,23.80
2018-10-05T09:13:11.986Z,23.70
2018-10-05T09:15:39.298Z,23.50
2018-10-05T09:18:06.624Z,23.90
2018-10-05T09:20:38.318Z,24.00
2018-10-05T09:23:05.937Z,24.30
2018-10-05T09:25:33.201Z,24.20
2018-10-05T09:28:00.436Z,24.40
2018-10-05T09:30:27.904Z,24.60
2018-10-05T09:32:55.098Z,24.90
2018-10-05T09:35:23.766Z,25.40
2018-10-05T09:37:51.179Z,25.70
2018-10-05T09:40:18.399Z,26.00
2018-10-05T09:42:45.695Z,26.30
2018-10-05T09:45:13.140Z,26.50
2018-10-05T09:47:40.521Z,26.50
2018-10-05T09:50:10.527Z,26.50
2018-10-05T09:52:37.869Z,26.80
2018-10-05T09:55:05.188Z,26.70
2018-10-05T09:57:32.553Z,26.70
2018-10-05T09:59:59.988Z,26.80
2018-10-05T10:02:35.549Z,27.10
2018-10-05T10:05:03.446Z,27.10
2018-10-05T10:07:30.749Z,26.70
2018-10-05T10:09:58.059Z,26.50
2018-10-05T10:12:25.439Z,27.10
2018-10-05T10:14:52.747Z,27.20
2018-10-05T10:17:24.366Z,26.80
2018-10-05T10:19:51.671Z,26.50
2018-10-05T10:22:18.978Z,26.20
2018-10-05T10:24:46.266Z,26.40
2018-10-05T10:27:13.558Z,26.20
2018-10-05T10:29:40.915Z,26.30
2018-10-05T10:32:08.876Z,26.60
2018-10-05T10:34:37.314Z,26.60
2018-10-05T10:37:04.572Z,26.70
2018-10-05T10:39:33.118Z,26.50
2018-10-05T10:42:00.430Z,26.70
2018-10-05T10:44:27.722Z,26.70
2018-10-05T10:46:59.580Z,27.10
2018-10-05T10:49:26.906Z,27.20
2018-10-05T10:51:54.182Z,27.10
2018-10-05T10:54:21.487Z,26.80
2018-10-05T10:56:48.831Z,26.90
2018-10-05T10:59:16.176Z,26.50
2018-10-05T11:01:47.761Z,26.20
2018-10-05T11:04:15.150Z,26.30
2018-10-05T11:06:42.398Z,26.30
2018-10-05T11:09:09.716Z,26.20
2018-10-05T11:11:37.038Z,26.20
2018-10-05T11:14:04.347Z,26.30
2018-10-05T11:16:35.578Z,26.30
2018-10-05T11:19:02.895Z,26.60
2018-10-05T11:21:30.182Z,26.50
2018-10-05T11:23:57.450Z,26.30
2018-10-05T11:26:24.775Z,26.20
2018-10-05T11:28:52.065Z,26.40
2018-10-05T11:31:21.812Z,25.70
2018-10-05T11:33:49.145Z,25.70
2018-10-05T11:36:16.531Z,25.90
2018-10-05T11:38:43.806Z,26.00
2018-10-05T11:41:11.062Z,26.40
2018-10-05T11:43:38.381Z,26.60
2018-10-05T11:46:05.738Z,26.40
2018-10-05T11:48:35.114Z,26.30
2018-10-05T11:51:02.388Z,26.30
2018-10-05T11:53:29.638Z,26.30
2018-10-05T11:55:56.982Z,26.20
2018-10-05T11:58:24.246Z,26.10
2018-10-05T12:00:51.574Z,26.10
2018-10-05T12:03:23.199Z,26.20
2018-10-05T12:05:50.608Z,26.10
2018-10-05T12:08:17.901Z,26.30
2018-10-05T12:10:45.187Z,26.50
2018-10-05T12:13:12.480Z,26.80
2018-10-05T12:15:39.739Z,26.70
2018-10-05T12:18:07.251Z,26.50
2018-10-05T12:20:37.014Z,26.60
2018-10-05T12:23:04.483Z,26.60
2018-10-05T12:25:31.950Z,26.60
2018-10-05T12:27:59.382Z,26.60
2018-10-05T12:30:26.846Z,26.80
2018-10-05T12:32:58.728Z,27.10
2018-10-05T12:35:26.244Z,27.40
2018-10-05T12:37:53.728Z,27.60
2018-10-05T12:40:21.219Z,27.20
2018-10-05T12:42:48.830Z,27.30
2018-10-05T12:45:16.318Z,27.30
2018-10-05T12:47:43.886Z,26.80
2018-10-05T12:50:13.454Z,27.00
2018-10-05T12:52:40.907Z,27.40
2018-10-05T12:55:08.374Z,27.40
2018-10-05T12:57:35.905Z,27.30
2018-10-05T13:00:03.630Z,27.00
2018-10-05T13:02:33.716Z,27.10
2018-10-05T13:05:03.207Z,26.90
2018-10-05T13:07:30.668Z,26.70
2018-10-05T13:09:58.216Z,26.80
2018-10-05T13:12:25.726Z,26.50
2018-10-05T13:14:53.194Z,26.50
2018-10-05T13:17:22.489Z,26.50
2018-10-05T13:19:50.018Z,26.80
2018-10-05T13:22:17.540Z,27.00
2018-10-05T13:24:45.122Z,26.90
2018-10-05T13:27:12.590Z,27.00
2018-10-05T13:29:40.115Z,27.00
2018-10-05T13:32:10.371Z,27.10
2018-10-05T13:34:37.942Z,27.30
2018-10-05T13:37:05.469Z,27.10
2018-10-05T13:39:32.962Z,27.20
2018-10-05T13:42:00.484Z,27.10
2018-10-05T13:44:27.871Z,27.10
2018-10-05T13:46:59.490Z,27.40
2018-10-05T13:49:26.942Z,27.30
2018-10-05T13:51:54.491Z,27.20
2018-10-05T13:54:21.982Z,26.90
2018-10-05T13:56:49.459Z,27.10
2018-10-05T13:59:16.957Z,26.90
2018-10-05T14:01:46.485Z,27.10
2018-10-05T14:04:13.964Z,27.20
2018-10-05T14:06:41.431Z,27.20
2018-10-05T14:09:09.791Z,27.30
2018-10-05T14:11:37.339Z,27.40
2018-10-05T14:14:09.177Z,27.60
2018-10-05T14:16:36.783Z,27.70
2018-10-05T14:19:04.440Z,27.60
2018-10-05T14:21:31.977Z,27.60
2018-10-05T14:23:59.496Z,27.70
2018-10-05T14:26:26.961Z,27.70
2018-10-05T14:31:30.146Z,26.90
2018-10-05T14:33:57.697Z,26.70
2018-10-05T14:36:25.087Z,26.70
2018-10-05T14:38:53.841Z,26.20
2018-10-05T14:41:25.422Z,26.20
2018-10-05T14:43:53.143Z,26.10
2018-10-05T14:46:20.723Z,25.90
2018-10-05T14:48:48.190Z,25.90
2018-10-05T14:51:15.666Z,25.60
2018-10-05T14:53:43.130Z,25.60
2018-10-05T14:56:12.290Z,25.10
2018-10-05T14:58:39.714Z,24.90
2018-10-05T15:01:07.314Z,24.90
2018-10-05T15:03:34.794Z,24.70
2018-10-05T15:06:02.259Z,24.30
2018-10-05T15:08:29.684Z,24.50
2018-10-05T15:10:57.147Z,24.30
2018-10-05T15:13:25.524Z,24.20
2018-10-05T15:15:53.034Z,24.10
2018-10-05T15:18:20.716Z,24.30
2018-10-05T15:20:48.210Z,24.30
2018-10-05T15:23:15.730Z,24.20
2018-10-05T15:25:48.054Z,24.30
2018-10-05T15:28:15.534Z,24.30
2018-10-05T15:30:42.962Z,24.10
2018-10-05T15:33:10.417Z,24.00
2018-10-05T15:35:37.879Z,24.10
2018-10-05T15:38:05.413Z,24.30
2018-10-05T15:40:32.863Z,24.30
2018-10-05T15:43:02.923Z,24.20
2018-10-05T15:45:30.350Z,24.30
2018-10-05T15:47:57.837Z,24.30
2018-10-05T15:50:25.261Z,24.20
2018-10-05T15:52:52.795Z,24.10
2018-10-05T15:55:20.234Z,24.00
2018-10-05T15:57:50.710Z,24.00
2018-10-05T16:00:18.206Z,23.90
2018-10-05T16:02:45.666Z,24.00
2018-10-05T16:05:13.183Z,23.90
2018-10-05T16:07:40.694Z,23.50
2018-10-05T16:10:08.163Z,23.50
2018-10-05T16:12:35.757Z,23.30
2018-10-05T16:15:04.550Z,23.20
2018-10-05T16:17:32.047Z,23.10
2018-10-05T16:19:59.537Z,22.90
2018-10-05T16:22:27.026Z,22.70
2018-10-05T16:24:54.691Z,22.60
2018-10-05T16:27:22.314Z,22.30
2018-10-05T16:29:52.291Z,22.20
2018-10-05T16:32:19.951Z,21.90
2018-10-05T16:34:47.455Z,21.90
2018-10-05T16:37:14.967Z,21.90
2018-10-05T16:39:43.526Z,22.00
2018-10-05T16:42:11.018Z,21.90
2018-10-05T16:44:41.675Z,21.80
2018-10-05T16:47:09.168Z,21.70
2018-10-05T16:49:36.702Z,21.60
2018-10-05T16:52:04.211Z,21.50
2018-10-05T16:54:31.718Z,21.30
2018-10-05T16:57:03.109Z,21.20
2018-10-05T16:59:30.550Z,21.00
2018-10-05T17:01:58.058Z,20.70
2018-10-05T17:04:25.591Z,20.60
2018-10-05T17:06:53.046Z,20.50
2018-10-05T17:09:20.547Z,20.30
2018-10-05T17:11:49.981Z,20.30
2018-10-05T17:14:18.087Z,20.20
2018-10-05T17:16:45.547Z,20.10
2018-10-05T17:19:13.031Z,19.90
2018-10-05T17:21:40.536Z,19.90
2018-10-05T17:24:08.034Z,20.00
2018-10-05T17:26:35.549Z,19.90
2018-10-05T17:29:03.017Z,19.90
2018-10-05T17:31:40.799Z,19.90
2018-10-05T17:34:08.344Z,19.80
2018-10-05T17:36:35.822Z,19.90
2018-10-05T17:39:05.186Z,20.00
2018-10-05T17:41:32.652Z,20.00
2018-10-05T17:44:00.145Z,20.10
2018-10-05T17:46:27.766Z,20.10
2018-10-05T17:48:55.262Z,20.20
2018-10-05T17:51:22.873Z,20.40
2018-10-05T17:53:50.347Z,20.40
2018-10-05T17:56:17.826Z,20.40
2018-10-05T17:58:45.325Z,20.40
2018-10-05T18:01:13.194Z,20.40
2018-10-05T18:03:40.679Z,20.30
2018-10-05T18:06:08.150Z,20.20
2018-10-05T18:08:36.287Z,20.10
2018-10-05T18:11:05.062Z,20.00
2018-10-05T18:13:32.804Z,19.90
2018-10-05T18:16:00.337Z,19.70
2018-10-05T18:18:27.816Z,19.60
2018-10-05T18:20:55.294Z,19.50
2018-10-05T18:23:23.163Z,19.30
2018-10-05T18:25:50.682Z,19.20
2018-10-05T18:28:18.161Z,19.10
2018-10-05T18:30:45.702Z,19.00
2018-10-05T18:33:13.166Z,18.90
2018-10-05T18:35:40.741Z,18.80
2018-10-05T18:38:08.558Z,18.70
2018-10-05T18:40:36.202Z,18.50
2018-10-05T18:43:03.707Z,18.40
2018-10-05T18:45:31.200Z,18.30
2018-10-05T18:47:59.010Z,18.10
2018-10-05T18:50:26.542Z,18.00
2018-10-05T18:52:54.039Z,17.90
2018-10-05T18:55:21.658Z,17.90
2018-10-05T18:57:49.261Z,17.80
2018-10-05T19:00:16.929Z,17.80
2018-10-05T19:02:44.430Z,17.70
2018-10-05T19:05:11.918Z,17.60
2018-10-05T19:07:39.480Z,17.50
2018-10-05T19:10:07.158Z,17.40
2018-10-05T19:12:34.654Z,17.30
2018-10-05T19:15:02.167Z,17.20
2018-10-05T19:17:29.681Z,17.10
2018-10-05T19:19:57.178Z,17.10
2018-10-05T19:22:24.639Z,17.00
2018-10-05T19:24:52.135Z,17.00
2018-10-05T19:27:19.888Z,16.80
2018-10-05T19:29:47.931Z,16.80
2018-10-05T19:32:15.551Z,16.60
2018-10-05T19:34:43.010Z,16.60
2018-10-05T19:37:10.502Z,16.60
2018-10-05T19:39:37.991Z,16.60
2018-10-05T19:42:05.557Z,16.80
2018-10-05T19:44:33.410Z,17.00
2018-10-05T19:47:00.938Z,17.10
2018-10-05T19:49:28.497Z,17.30
2018-10-05T19:51:56.235Z,17.50
2018-10-05T19:54:23.836Z,17.50
2018-10-05T19:56:51.372Z,17.50
2018-10-05T19:59:19.047Z,17.50
2018-10-05T20:01:46.577Z,17.60
2018-10-05T20:04:14.034Z,17.70
2018-10-05T20:06:41.768Z,17.70
2018-10-05T20:09:09.400Z,17.60
2018-10-05T20:11:36.962Z,17.80
2018-10-05T20:14:05.550Z,17.90
2018-10-05T20:16:33.086Z,18.00
2018-10-05T20:19:00.614Z,17.90
2018-10-05T20:21:28.258Z,18.00
2018-10-05T20:23:55.895Z,18.10
2018-10-05T20:26:23.859Z,18.10
2018-10-05T20:28:51.374Z,18.10
2018-10-05T20:31:18.986Z,18.20
2018-10-05T20:33:46.629Z,18.30
2018-10-05T20:36:14.342Z,18.10
2018-10-05T20:38:41.797Z,17.90
2018-10-05T20:41:09.348Z,17.90
2018-10-05T20:43:37.003Z,17.80
2018-10-05T20:46:04.896Z,17.80
2018-10-05T20:48:32.383Z,17.70
2018-10-05T20:50:59.855Z,17.60
2018-10-05T20:53:27.326Z,17.60
2018-10-05T20:55:54.817Z,17.60
2018-10-05T20:58:22.290Z,17.60
2018-10-05T21:00:49.859Z,17.60
2018-10-05T21:03:17.474Z,17.60
2018-10-05T21:05:45.040Z,17.60
2018-10-05T21:08:12.515Z,17.70
2018-10-05T21:10:39.984Z,17.80
2018-10-05T21:13:07.498Z,18.00
2018-10-05T21:15:35.022Z,17.80
2018-10-05T21:18:02.554Z,17.80
2018-10-05T21:20:30.197Z,18.00
2018-10-05T21:22:57.694Z,17.90
2018-10-05T21:25:25.403Z,18.00
2018-10-05T21:27:52.911Z,17.80
2018-10-05T21:30:20.383Z,17.70
2018-10-05T21:32:48.356Z,17.80
2018-10-05T21:35:15.804Z,17.80
2018-10-05T21:37:43.330Z,17.60
2018-10-05T21:40:10.850Z,17.60
2018-10-05T21:42:38.341Z,17.60
2018-10-05T21:45:05.946Z,17.40
2018-10-05T21:47:33.393Z,17.20
2018-10-05T21:50:00.929Z,17.40
2018-10-05T21:52:28.483Z,17.30
2018-10-05T21:54:56.012Z,17.20
2018-10-05T21:57:23.659Z,17.20
2018-10-05T21:59:51.223Z,17.20
2018-10-05T22:02:18.757Z,17.30
2018-10-05T22:04:46.207Z,17.20
2018-10-05T22:07:13.719Z,17.00
2018-10-05T22:09:41.190Z,17.10
2018-10-05T22:12:08.711Z,17.10
2018-10-05T22:14:36.431Z,17.10
2018-10-05T22:17:03.958Z,17.10
2018-10-05T22:19:31.554Z,17.10
2018-10-05T22:21:59.131Z,16.90
2018-10-05T22:24:26.594Z,16.90
2018-10-05T22:26:54.089Z,16.90
2018-10-05T22:29:21.705Z,16.90
2018-10-05T22:31:49.177Z,17.10
2018-10-05T22:34:16.674Z,16.80
2018-10-05T22:36:44.238Z,16.90
2018-10-05T22:39:11.801Z,16.80
2018-10-05T22:41:39.271Z,16.70
2018-10-05T22:44:06.796Z,16.80
2018-10-05T22:46:34.377Z,16.80
2018-10-05T22:49:01.950Z,16.60
2018-10-05T22:51:29.519Z,16.90
2018-10-05T22:53:57.956Z,16.80
2018-10-05T22:56:25.419Z,16.70
2018-10-05T22:58:52.890Z,16.90
2018-10-05T23:01:20.364Z,16.90
2018-10-05T23:03:47.844Z,16.80
2018-10-05T23:06:15.366Z,16.70
2018-10-05T23:08:42.840Z,16.70
2018-10-05T23:11:10.307Z,16.80
2018-10-05T23:13:37.820Z,16.90
2018-10-05T23:16:05.298Z,16.70
2018-10-05T23:18:32.826Z,16.60
2018-10-05T23:21:00.261Z,16.70
2018-10-05T23:23:27.705Z,16.80
2018-10-05T23:25:55.154Z,16.90
2018-10-05T23:28:22.604Z,16.80
2018-10-05T23:30:50.091Z,16.70
2018-10-05T23:33:17.666Z,16.90
2018-10-05T23:35:45.251Z,16.80
2018-10-05T23:38:12.874Z,16.90
2018-10-05T23:40:40.343Z,16.70
2018-10-05T23:43:07.799Z,16.80
2018-10-05T23:45:35.254Z,16.70
2018-10-05T23:48:02.707Z,16.70
2018-10-05T23:50:30.174Z,16.40
2018-10-05T23:52:57.827Z,16.40
2018-10-05T23:55:25.287Z,16.50
2018-10-05T23:57:52.819Z,16.60
